Time;durP1;ratioP1;P1;durP2;ratioP2;P2;SDS_P1;SDS_P2;PMS_P1;PMS_P2;Temp;Humidity;BMP_temperature;BMP_pressure;BME280_temperature;BME280_humidity;BME280_pressure;Samples;Min_cycle;Max_cycle;Signal;HPM_P1;HPM_P2
2022/07/29 00:00:46;;;;;;;7.00;4.90;;;;;;;;;;5041104;28;20444;-88
2022/07/29 00:03:12;;;;;;;7.20;5.70;;;20.30;99.90;;;;;;5034467;28;20437;-89
2022/07/29 00:05:39;;;;;;;6.43;5.37;;;20.20;99.90;;;;;;5028011;28;20488;-88
2022/07/29 00:08:05;;;;;;;8.03;5.03;;;;;;;;;;5030826;28;20448;-90
2022/07/29 00:10:31;;;;;;;6.20;5.53;;;;;;;;;;5032049;28;20471;-88
2022/07/29 00:12:57;;;;;;;6.37;5.70;;;;;;;;;;5029810;28;20732;-88
2022/07/29 00:15:23;;;;;;;9.80;6.10;;;;;;;;;;5024564;28;20467;-87
2022/07/29 00:17:49;;;;;;;6.57;5.20;;;;;;;;;;5035869;28;20439;-87
2022/07/29 00:20:15;;;;;;;6.70;5.80;;;;;;;;;;5027905;28;20453;-87
2022/07/29 00:22:41;;;;;;;9.80;5.50;;;20.20;99.90;;;;;;5027717;28;20448;-86
2022/07/29 00:25:07;;;;;;;6.63;6.00;;;22.40;99.90;;;;;;5031606;28;20452;-90
2022/07/29 00:27:33;;;;;;;6.50;5.80;;;;;;;;;;5029554;28;20182;-90
2022/07/29 00:29:59;;;;;;;6.07;5.23;;;;;;;;;;5028284;28;20464;-89
2022/07/29 00:32:25;;;;;;;9.37;5.73;;;;;;;;;;5026315;28;20428;-89
2022/07/29 00:37:35;;;;;;;8.40;6.20;;;20.00;99.90;;;;;;5023676;28;21317;-90
2022/07/29 00:40:01;;;;;;;6.27;5.47;;;;;;;;;;5022795;28;20433;-88
2022/07/29 00:42:27;;;;;;;9.10;6.70;;;20.00;99.90;;;;;;5023812;28;20181;-89
2022/07/29 00:44:53;;;;;;;7.63;6.67;;;20.20;99.90;;;;;;5027592;28;20475;-87
2022/07/29 00:47:19;;;;;;;7.40;5.60;;;;;;;;;;5025381;28;20227;-87
2022/07/29 00:49:47;;;;;;;11.17;6.40;;;;;;;;;;5025416;28;20270;-88
2022/07/29 00:52:13;;;;;;;8.47;6.13;;;19.90;99.90;;;;;;5034348;28;20433;-87
2022/07/29 00:54:40;;;;;;;9.07;5.77;;;19.90;99.90;;;;;;5029006;28;20460;-89
2022/07/29 00:57:07;;;;;;;11.50;6.80;;;19.90;99.90;;;;;;5023668;28;20436;-88
2022/07/29 00:59:34;;;;;;;9.13;6.20;;;;;;;;;;5036127;28;20537;-89
2022/07/29 01:02:00;;;;;;;8.67;6.03;;;;;;;;;;5025038;28;20429;-86
2022/07/29 01:04:26;;;;;;;6.33;5.23;;;;;;;;;;5022115;28;20468;-87
2022/07/29 01:06:52;;;;;;;8.90;6.77;;;;;;;;;;5038660;28;20452;-87
2022/07/29 01:09:19;;;;;;;10.10;6.83;;;19.90;99.90;;;;;;5029459;28;20556;-87
2022/07/29 01:11:47;;;;;;;7.13;6.43;;;19.80;99.90;;;;;;5020928;28;20482;-88
2022/07/29 01:14:14;;;;;;;8.73;7.43;;;;;;;;;;5035993;28;20507;-88
2022/07/29 01:16:54;;;;;;;10.70;7.13;;;19.80;99.90;;;;;;5031544;28;20460;-89
2022/07/29 01:20:01;;;;;;;10.53;7.50;;;19.60;99.90;;;;;;5027324;28;20456;-89
2022/07/29 01:22:48;;;;;;;10.23;7.57;;;19.60;99.90;;;;;;4984746;28;20453;-89
2022/07/29 01:25:45;;;;;;;12.00;7.63;;;19.40;99.90;;;;;;4979012;28;20516;-87
2022/07/29 01:28:29;;;;;;;9.23;6.70;;;21.70;99.90;;;;;;5003472;28;20460;-88
2022/07/29 01:30:57;;;;;;;8.90;7.13;;;17.70;99.90;;;;;;5024525;28;20459;-88
2022/07/29 01:36:14;;;;;;;10.93;7.30;;;21.90;99.90;;;;;;5027724;28;20499;-89
2022/07/29 01:38:43;;;;;;;8.20;7.30;;;19.00;99.90;;;;;;5020743;28;20931;-87
2022/07/29 01:41:16;;;;;;;9.97;7.77;;;18.90;99.90;;;;;;5036051;28;20428;-89
2022/07/29 01:43:53;;;;;;;8.97;8.07;;;18.90;99.90;;;;;;5030316;28;20444;-89
2022/07/29 01:46:25;;;;;;;10.27;7.87;;;18.90;99.90;;;;;;5030461;28;20677;-90
2022/07/29 01:48:57;;;;;;;8.53;7.27;;;20.70;99.90;;;;;;5031342;28;20576;-87
2022/07/29 01:51:35;;;;;;;11.77;8.47;;;16.50;99.90;;;;;;5028139;28;20433;-92
2022/07/29 01:54:54;;;;;;;11.73;9.30;;;19.70;99.90;;;;;;5033293;28;20436;-88
2022/07/29 01:57:23;;;;;;;11.83;8.80;;;18.80;99.90;;;;;;5003636;28;20515;-86
2022/07/29 01:59:50;;;;;;;8.80;7.93;;;19.80;99.90;;;;;;5027684;28;20441;-88
2022/07/29 02:02:19;;;;;;;8.77;7.33;;;18.60;99.90;;;;;;5041363;28;20459;-87
2022/07/29 02:04:48;;;;;;;12.37;7.90;;;18.60;99.90;;;;;;5043416;28;21530;-87
2022/07/29 02:07:19;;;;;;;8.93;7.43;;;18.50;99.90;;;;;;5029267;28;20476;-86
2022/07/29 02:09:47;;;;;;;14.43;8.90;;;18.40;99.90;;;;;;5026493;28;20453;-90
2022/07/29 02:12:14;;;;;;;11.30;7.73;;;20.40;99.90;;;;;;5029412;28;20437;-87
2022/07/29 02:14:47;;;;;;;7.83;7.10;;;18.20;99.90;;;;;;5044191;28;20475;-86
2022/07/29 02:17:16;;;;;;;13.57;8.60;;;18.10;99.90;;;;;;5031433;28;20471;-89
2022/07/29 02:19:44;;;;;;;12.40;8.80;;;18.20;99.90;;;;;;5031631;28;20499;-88
2022/07/29 02:22:12;;;;;;;11.10;7.57;;;18.20;99.90;;;;;;5027411;28;20449;-88
2022/07/29 02:24:40;;;;;;;11.10;9.03;;;18.30;99.90;;;;;;5029135;28;20909;-87
2022/07/29 02:27:07;;;;;;;13.83;8.37;;;18.30;99.90;;;;;;5030243;28;20509;-88
2022/07/29 02:29:35;;;;;;;13.60;8.90;;;18.20;99.90;;;;;;5029921;28;20476;-89
2022/07/29 02:32:02;;;;;;;13.43;7.53;;;19.00;99.90;;;;;;5030876;28;20737;-89
2022/07/29 02:34:28;;;;;;;13.10;8.07;;;;;;;;;;5030741;28;20455;-87
2022/07/29 02:36:55;;;;;;;12.03;7.87;;;18.10;99.90;;;;;;5024262;28;20441;-87
2022/07/29 02:39:24;;;;;;;9.27;7.10;;;20.30;99.90;;;;;;5026705;28;20454;-87
2022/07/29 02:42:00;;;;;;;8.93;8.03;;;18.20;99.90;;;;;;5024860;28;20464;-88
2022/07/29 02:44:26;;;;;;;8.87;7.97;;;18.10;99.90;;;;;;5029968;28;20459;-89
2022/07/29 02:47:07;;;;;;;8.17;7.37;;;20.20;99.90;;;;;;5030752;28;20441;-87
2022/07/29 02:50:11;;;;;;;9.23;7.80;;;17.80;99.90;;;;;;5021541;28;20339;-86
2022/07/29 02:52:55;;;;;;;12.13;8.37;;;17.70;99.90;;;;;;5030535;28;20444;-88
2022/07/29 02:55:48;;;;;;;10.33;8.17;;;17.60;99.90;;;;;;5027120;28;20456;-87
2022/07/29 02:58:32;;;;;;;10.47;7.63;;;17.40;99.90;;;;;;5024826;28;20444;-88
2022/07/29 03:01:02;;;;;;;12.53;9.00;;;17.10;99.90;;;;;;5023601;28;20438;-87
2022/07/29 03:03:31;;;;;;;10.57;8.20;;;16.90;99.90;;;;;;5029460;28;20443;-86
2022/07/29 03:05:59;;;;;;;11.90;8.50;;;16.90;99.90;;;;;;5032251;28;20471;-90
2022/07/29 03:08:28;;;;;;;11.87;9.40;;;17.00;99.90;;;;;;5035450;28;20441;-89
2022/07/29 03:10:54;;;;;;;9.80;8.27;;;;;;;;;;5036457;28;20444;-89
2022/07/29 03:13:21;;;;;;;16.73;9.67;;;17.10;99.90;;;;;;5030917;28;20447;-87
2022/07/29 03:15:47;;;;;;;12.57;10.40;;;17.20;99.90;;;;;;5032081;28;20447;-89
2022/07/29 03:18:14;;;;;;;10.07;8.37;;;17.20;99.90;;;;;;5033867;28;20436;-87
2022/07/29 03:20:40;;;;;;;11.00;8.43;;;;;;;;;;5034365;28;20452;-87
2022/07/29 03:23:06;;;;;;;9.07;7.53;;;;;;;;;;5048465;28;20448;-88
2022/07/29 03:25:32;;;;;;;9.53;7.70;;;;;;;;;;5034279;28;20483;-87
2022/07/29 03:28:04;;;;;;;9.87;8.00;;;17.10;99.90;;;;;;5034433;28;20436;-88
2022/07/29 03:30:33;;;;;;;9.93;8.57;;;;;;;;;;5034070;28;20461;-88
2022/07/29 03:33:01;;;;;;;8.87;7.93;;;;;;;;;;5036123;28;21826;-88
2022/07/29 03:35:28;;;;;;;9.10;7.93;;;;;;;;;;5032181;28;20455;-88
2022/07/29 03:38:13;;;;;;;10.67;9.00;;;16.80;99.90;;;;;;5029969;28;20433;-89
2022/07/29 03:41:22;;;;;;;7.93;7.13;;;16.70;99.90;;;;;;5046748;28;20443;-90
2022/07/29 03:44:03;;;;;;;10.17;7.30;;;16.70;99.90;;;;;;5033515;28;20456;-89
2022/07/29 03:46:46;;;;;;;7.93;7.13;;;16.90;99.90;;;;;;5039783;28;20547;-88
2022/07/29 03:49:19;;;;;;;10.23;8.37;;;16.60;99.90;;;;;;5034830;28;20449;-87
2022/07/29 03:51:50;;;;;;;12.67;10.17;;;;;;;;;;5042923;28;20443;-87
2022/07/29 03:54:17;;;;;;;13.33;9.97;;;;;;;;;;5037853;28;20605;-89
2022/07/29 03:56:47;;;;;;;12.03;9.90;;;16.90;99.90;;;;;;5027822;28;20429;-89
2022/07/29 03:59:20;;;;;;;12.17;8.43;;;17.00;99.90;;;;;;5034864;28;20467;-88
2022/07/29 04:01:47;;;;;;;11.90;8.50;;;;;;;;;;5035123;28;20467;-89
2022/07/29 04:04:13;;;;;;;9.80;8.80;;;;;;;;;;5028625;28;20436;-91
2022/07/29 04:06:47;;;;;;;11.03;8.93;;;17.10;99.90;;;;;;5030531;28;21931;-91
2022/07/29 04:09:23;;;;;;;;;;;;;;;;;;;;;
2022/07/29 04:11:49;;;;;;;9.03;7.50;;;;;;;;;;5030024;28;20552;-88
2022/07/29 04:14:17;;;;;;;11.50;8.57;;;;;;;;;;5030625;28;20607;-90
2022/07/29 04:16:53;;;;;;;11.47;8.60;;;16.90;99.90;;;;;;5032251;28;20436;-89
2022/07/29 04:19:19;;;;;;;13.60;7.77;;;;;;;;;;5031400;28;20460;-88
2022/07/29 04:21:45;;;;;;;11.73;8.80;;;;;;;;;;5034328;28;20465;-89
2022/07/29 04:24:15;;;;;;;8.93;7.60;;;17.00;99.90;;;;;;5027267;28;20432;-89
2022/07/29 04:26:50;;;;;;;10.30;8.70;;;17.10;99.90;;;;;;5022886;28;20439;-89
2022/07/29 04:29:16;;;;;;;15.20;7.93;;;;;;;;;;5029512;28;20460;-87
2022/07/29 04:31:44;;;;;;;12.57;8.23;;;;;;;;;;5022818;28;20438;-90
2022/07/29 04:34:15;;;;;;;11.03;8.77;;;18.00;99.90;;;;;;5023699;28;20437;-90
2022/07/29 04:36:55;;;;;;;9.50;8.43;;;18.30;99.90;;;;;;5030466;28;20929;-89
2022/07/29 04:39:34;;;;;;;10.03;8.03;;;18.90;99.90;;;;;;5028483;28;20476;-88
2022/07/29 04:41:59;;;;;;;9.40;6.60;;;21.80;99.90;;;;;;5020335;28;20577;-86
2022/07/29 04:44:30;;;;;;;9.73;6.70;;;20.30;99.90;;;;;;5019319;28;20722;-90
2022/07/29 04:46:59;;;;;;;12.40;6.77;;;20.90;99.90;;;;;;5021837;28;20218;-87
2022/07/29 04:49:25;;;;;;;8.50;6.10;;;;;;;;;;5036769;28;20465;-88
2022/07/29 04:51:54;;;;;;;8.00;6.60;;;21.00;99.90;;;;;;5045871;28;20834;-89
2022/07/29 04:54:24;;;;;;;8.20;7.40;;;21.00;99.90;;;;;;5036683;28;20531;-90
2022/07/29 04:56:55;;;;;;;13.73;9.57;;;20.90;99.90;;;;;;5030709;28;20472;-89
2022/07/29 04:59:26;;;;;;;9.70;8.57;;;;;;;;;;5030880;28;20497;-90
2022/07/29 05:02:00;;;;;;;9.20;7.90;;;19.80;99.90;;;;;;5024826;28;20499;-87
2022/07/29 05:04:29;;;;;;;9.43;8.53;;;;;;;;;;5019727;28;20460;-87
2022/07/29 05:07:04;;;;;;;11.60;9.40;;;;;;;;;;5024515;28;20471;-89
2022/07/29 05:09:34;;;;;;;10.53;9.23;;;18.60;99.90;;;;;;5028923;28;20463;-91
2022/07/29 05:12:00;;;;;;;11.13;9.87;;;;;;;;;;5037981;28;20540;-89
2022/07/29 05:14:27;;;;;;;13.00;8.40;;;18.70;99.90;;;;;;5018098;28;20479;-85
2022/07/29 05:17:02;;;;;;;13.70;8.70;;;18.80;99.90;;;;;;5018066;28;20425;-86
2022/07/29 05:19:39;;;;;;;10.07;8.77;;;;;;;;;;5015307;28;20448;-86
2022/07/29 05:22:05;;;;;;;8.63;7.83;;;;;;;;;;5035195;28;20879;-86
2022/07/29 05:24:31;;;;;;;9.53;7.60;;;;;;;;;;5034804;28;20460;-88
2022/07/29 05:27:06;;;;;;;9.00;7.77;;;;;;;;;;5023697;28;20425;-90
2022/07/29 05:29:38;;;;;;;8.20;7.47;;;25.80;99.90;;;;;;5015450;28;20460;-91
2022/07/29 05:32:04;;;;;;;6.80;6.10;;;;;;;;;;5020069;28;20437;-89
2022/07/29 05:34:36;;;;;;;6.17;5.57;;;29.70;99.90;;;;;;5020095;28;21183;-89
2022/07/29 05:37:43;;;;;;;7.20;6.27;;;31.10;99.90;;;;;;5012084;28;20435;-87
2022/07/29 05:40:26;;;;;;;11.40;6.50;;;32.10;99.90;;;;;;5020246;28;20445;-89
2022/07/29 05:43:23;;;;;;;7.17;6.40;;;33.10;99.00;;;;;;5018179;28;20452;-91
2022/07/29 05:45:50;;;;;;;7.53;5.63;;;;;;;;;;5014233;28;20821;-89
2022/07/29 05:48:32;;;;;;;8.27;7.23;;;33.10;93.40;;;;;;5021476;28;20445;-88
2022/07/29 05:51:03;;;;;;;6.30;5.27;;;34.00;93.20;;;;;;5020642;28;20469;-90
2022/07/29 05:53:51;;;;;;;8.40;5.50;;;33.90;90.00;;;;;;5015951;28;20438;-87
2022/07/29 05:56:28;;;;;;;6.73;6.07;;;32.60;91.10;;;;;;5036097;28;20461;-89
2022/07/29 05:58:59;;;;;;;9.10;6.20;;;31.30;92.60;;;;;;5017736;28;20441;-88
2022/07/29 06:01:52;;;;;;;8.20;6.20;;;30.70;93.90;;;;;;5026534;28;20527;-87
2022/07/29 06:04:26;;;;;;;9.17;7.27;;;29.50;95.60;;;;;;5019537;28;20529;-91
2022/07/29 06:07:03;;;;;;;8.53;7.70;;;29.20;97.80;;;;;;5015950;28;21364;-88
2022/07/29 06:09:49;;;;;;;8.40;7.20;;;28.20;99.90;;;;;;5021088;28;20467;-89
2022/07/29 06:12:26;;;;;;;11.03;7.50;;;28.50;99.90;;;;;;5032027;28;20431;-88
2022/07/29 06:15:15;;;;;;;9.00;6.93;;;29.60;99.90;;;;;;5018201;28;20444;-90
2022/07/29 06:17:59;;;;;;;9.83;6.70;;;31.60;97.80;;;;;;5028006;28;20434;-89
2022/07/29 06:20:40;;;;;;;7.67;6.97;;;;;;;;;;5032419;28;20994;-92
2022/07/29 06:23:28;;;;;;;7.63;6.80;;;31.00;96.20;;;;;;5018099;28;20436;-90
2022/07/29 06:25:59;;;;;;;8.33;7.10;;;31.50;96.10;;;;;;5036690;28;20460;-89
2022/07/29 06:34:56;;;;;;;11.60;5.87;;;33.60;91.70;;;;;;5020158;28;20890;-92
2022/07/29 06:37:53;;;;;;;6.67;6.07;;;32.10;92.10;;;;;;5023835;28;20455;-92
2022/07/29 06:46:34;;;;;;;8.77;5.77;;;34.00;91.40;;;;;;5085056;22;20585;-85
2022/07/29 06:49:01;;;;;;;8.53;6.70;;;34.70;87.10;;;;;;5020243;28;20525;-86
2022/07/29 06:51:27;;;;;;;6.47;5.87;;;35.40;85.70;;;;;;4999620;28;21133;-85
2022/07/29 06:53:53;;;;;;;9.07;6.60;;;35.40;83.10;;;;;;5014776;28;20439;-85
2022/07/29 06:56:18;;;;;;;6.23;5.73;;;35.20;81.50;;;;;;5014370;28;20545;-85
2022/07/29 06:58:44;;;;;;;5.63;5.10;;;35.10;80.80;;;;;;5015076;28;20205;-85
2022/07/29 07:01:09;;;;;;;7.90;6.17;;;36.20;80.30;;;;;;5017277;28;20248;-86
2022/07/29 07:03:35;;;;;;;7.57;6.47;;;;;;;;;;5018518;28;20181;-85
2022/07/29 07:06:01;;;;;;;7.83;6.10;;;38.00;71.00;;;;;;5016074;28;20210;-86
2022/07/29 07:08:26;;;;;;;7.33;6.83;;;38.20;69.30;;;;;;5015043;28;20817;-86
2022/07/29 07:10:52;;;;;;;10.37;7.40;;;37.60;66.30;;;;;;5014802;28;20267;-86
2022/07/29 07:13:19;;;;;;;10.60;7.30;;;35.80;69.00;;;;;;5000892;28;20198;-86
2022/07/29 07:15:47;;;;;;;7.90;7.20;;;35.00;74.90;;;;;;5011587;28;20185;-86
2022/07/29 07:18:13;;;;;;;9.93;8.00;;;37.00;69.90;;;;;;5015000;28;20437;-86
2022/07/29 07:20:39;;;;;;;7.20;6.70;;;37.10;70.30;;;;;;5013459;28;20431;-86
2022/07/29 07:23:04;;;;;;;8.00;6.53;;;36.60;67.30;;;;;;5014219;28;20990;-86
2022/07/29 07:25:30;;;;;;;15.43;6.60;;;33.80;70.40;;;;;;5002115;28;20208;-85
2022/07/29 07:27:56;;;;;;;6.57;5.77;;;32.40;75.60;;;;;;5013373;28;20269;-85
2022/07/29 07:30:22;;;;;;;8.90;6.80;;;32.90;78.50;;;;;;5011183;28;20470;-85
2022/07/29 07:32:47;;;;;;;8.43;5.93;;;34.40;76.20;;;;;;5012916;28;20226;-86
2022/07/29 07:35:13;;;;;;;6.83;6.23;;;35.70;74.40;;;;;;5016724;28;20189;-86
2022/07/29 07:37:42;;;;;;;6.60;6.10;;;39.00;67.60;;;;;;5012053;28;20189;-86
2022/07/29 07:40:09;;;;;;;9.30;8.40;;;38.90;62.30;;;;;;4993942;28;20497;-86
2022/07/29 07:42:35;;;;;;;8.33;7.63;;;38.00;60.50;;;;;;5008294;28;20443;-86
2022/07/29 07:45:01;;;;;;;10.43;8.47;;;37.10;60.50;;;;;;5016403;28;20450;-85
2022/07/29 07:47:26;;;;;;;8.80;7.90;;;35.80;63.50;;;;;;5015948;28;20311;-85
2022/07/29 07:49:52;;;;;;;8.60;7.87;;;36.10;63.30;;;;;;5018592;28;20223;-83
2022/07/29 07:52:20;;;;;;;8.73;8.00;;;35.30;62.50;;;;;;5001089;28;20656;-84
2022/07/29 07:54:46;;;;;;;8.63;7.83;;;35.20;63.30;;;;;;5017311;28;20482;-84
2022/07/29 07:57:12;;;;;;;9.33;8.43;;;34.60;65.70;;;;;;5013601;28;20822;-84
2022/07/29 07:59:38;;;;;;;10.77;7.90;;;32.80;69.20;;;;;;5013268;28;20209;-84
2022/07/29 08:02:04;;;;;;;7.07;6.57;;;31.10;73.70;;;;;;4995154;28;20543;-84
2022/07/29 08:04:30;;;;;;;7.43;6.73;;;30.00;78.90;;;;;;5017956;28;20540;-83
2022/07/29 08:06:56;;;;;;;6.50;6.00;;;29.10;85.30;;;;;;5014831;28;20193;-83
2022/07/29 08:09:23;;;;;;;7.07;6.37;;;29.20;89.10;;;;;;5004030;28;20337;-83
2022/07/29 08:11:49;;;;;;;6.30;5.80;;;29.00;90.40;;;;;;5015236;28;21016;-83
2022/07/29 08:14:14;;;;;;;8.73;5.77;;;29.20;90.90;;;;;;5016692;28;20429;-83
2022/07/29 08:16:41;;;;;;;10.93;7.27;;;29.30;91.90;;;;;;5015922;28;20185;-83
2022/07/29 08:19:07;;;;;;;8.73;6.37;;;28.20;91.90;;;;;;5013594;28;20220;-83
2022/07/29 08:21:32;;;;;;;7.90;6.17;;;28.10;94.50;;;;;;4999332;28;20900;-83
2022/07/29 08:26:43;;;;;;;7.13;6.50;;;30.00;91.80;;;;;;5016304;28;20685;-83
2022/07/29 08:29:09;;;;;;;8.10;6.03;;;30.30;91.40;;;;;;5015109;28;20547;-84
2022/07/29 08:31:36;;;;;;;8.53;6.80;;;30.30;90.80;;;;;;4997749;28;20453;-83
2022/07/29 08:34:03;;;;;;;9.57;5.93;;;30.70;90.20;;;;;;5013734;28;20441;-83
2022/07/29 08:36:28;;;;;;;6.67;6.20;;;31.40;88.60;;;;;;5015830;28;20446;-86
2022/07/29 08:38:54;;;;;;;14.00;7.30;;;31.60;88.60;;;;;;5015226;28;20451;-83
2022/07/29 08:41:20;;;;;;;6.93;6.23;;;32.70;85.00;;;;;;5012390;28;20233;-84
2022/07/29 08:43:46;;;;;;;7.10;5.80;;;33.60;82.20;;;;;;5015236;28;20178;-84
2022/07/29 08:46:12;;;;;;;6.47;5.97;;;35.90;77.30;;;;;;5018309;28;20221;-84
2022/07/29 08:48:40;;;;;;;9.63;7.20;;;37.40;69.50;;;;;;5011901;28;20494;-84
2022/07/29 08:51:07;;;;;;;7.20;6.50;;;37.00;65.10;;;;;;4999022;28;20801;-85
2022/07/29 08:53:33;;;;;;;7.57;6.73;;;35.40;66.70;;;;;;5013058;28;22813;-84
2022/07/29 08:55:59;;;;;;;7.90;7.23;;;34.70;70.50;;;;;;5014646;28;20461;-84
2022/07/29 08:58:26;;;;;;;8.97;8.13;;;34.90;66.40;;;;;;5015736;28;20364;-84
2022/07/29 09:00:56;;;;;;;8.13;7.43;;;34.40;61.70;;;;;;5011197;28;20475;-84
2022/07/29 09:03:29;;;;;;;10.13;7.93;;;34.50;60.20;;;;;;5013524;28;20444;-84
2022/07/29 09:05:55;;;;;;;9.97;9.07;;;33.90;62.80;;;;;;4996507;28;20456;-84
2022/07/29 09:08:21;;;;;;;8.17;7.40;;;30.20;61.20;;;;;;5009306;28;20450;-84
2022/07/29 09:10:47;;;;;;;8.13;7.30;;;31.50;63.70;;;;;;5015991;28;20205;-84
2022/07/29 09:13:12;;;;;;;8.83;8.10;;;32.30;67.30;;;;;;5015663;28;20478;-84
2022/07/29 09:15:38;;;;;;;9.30;8.43;;;32.90;64.90;;;;;;5016746;28;21012;-84
2022/07/29 09:18:03;;;;;;;7.80;7.10;;;33.50;63.90;;;;;;5002781;28;20664;-83
2022/07/29 09:21:57;;;;;;;8.40;7.70;;;31.70;62.00;;;;;;5018291;28;20223;-83
2022/07/29 09:23:15;;;;;;;10.03;7.07;;;31.30;65.40;;;;;;5015697;28;20190;-83
2022/07/29 09:25:41;;;;;;;7.53;6.83;;;31.10;68.60;;;;;;5014493;28;20429;-84
2022/07/29 09:28:17;;;;;;;8.03;6.60;;;31.60;64.30;;;;;;5019458;28;20277;-83
2022/07/29 09:31:01;;;;;;;11.83;6.83;;;31.60;64.90;;;;;;5014106;28;20451;-84
2022/07/29 09:33:39;;;;;;;7.87;7.03;;;30.70;68.70;;;;;;5018119;28;20907;-82
2022/07/29 09:36:06;;;;;;;7.50;6.30;;;30.80;71.70;;;;;;5013726;28;20432;-82
2022/07/29 09:38:33;;;;;;;9.03;7.07;;;31.10;69.00;;;;;;5009048;28;20462;-83
2022/07/29 09:41:00;;;;;;;7.57;6.97;;;29.90;70.80;;;;;;5022430;28;20430;-83
2022/07/29 09:43:26;;;;;;;8.50;7.30;;;31.00;71.20;;;;;;5021115;28;20507;-82
2022/07/29 09:45:51;;;;;;;9.00;6.90;;;31.10;68.30;;;;;;5022069;28;21463;-83
2022/07/29 09:48:19;;;;;;;7.40;6.50;;;30.30;63.70;;;;;;5026070;28;20178;-83
2022/07/29 09:50:48;;;;;;;6.57;5.97;;;30.30;64.60;;;;;;5017309;28;20209;-83
2022/07/29 09:53:29;;;;;;;12.17;6.40;;;30.30;68.20;;;;;;5017336;28;20942;-83
2022/07/29 09:55:54;;;;;;;13.90;7.10;;;31.70;63.50;;;;;;5017017;28;20455;-82
2022/07/29 09:58:22;;;;;;;7.17;6.57;;;31.60;60.70;;;;;;5021864;28;20434;-83
2022/07/29 10:00:49;;;;;;;11.50;6.80;;;31.20;61.40;;;;;;5021510;28;20188;-82
2022/07/29 10:03:15;;;;;;;7.77;7.07;;;30.30;63.60;;;;;;5011158;28;20432;-82
2022/07/29 10:05:41;;;;;;;7.90;7.10;;;30.40;65.70;;;;;;5018442;28;20443;-82
2022/07/29 10:08:08;;;;;;;8.07;6.30;;;30.20;67.10;;;;;;5014576;28;20984;-83
2022/07/29 10:10:39;;;;;;;8.50;7.00;;;30.20;67.90;;;;;;5014033;28;20467;-84
2022/07/29 10:13:12;;;;;;;7.90;7.10;;;31.60;64.60;;;;;;5022309;28;20443;-83
2022/07/29 10:15:40;;;;;;;10.60;7.03;;;32.60;61.00;;;;;;5020671;28;20450;-83
2022/07/29 10:18:10;;;;;;;7.37;6.80;;;32.20;62.30;;;;;;5020094;28;20425;-84
2022/07/29 10:20:36;;;;;;;7.40;6.80;;;33.80;62.10;;;;;;5006274;28;20490;-84
2022/07/29 10:23:02;;;;;;;9.37;8.37;;;34.20;58.80;;;;;;5006433;28;20548;-83
2022/07/29 10:25:28;;;;;;;8.70;7.93;;;33.60;58.50;;;;;;5001366;28;20206;-83
2022/07/29 10:27:54;;;;;;;8.70;7.83;;;32.50;59.60;;;;;;5021393;28;20517;-85
2022/07/29 10:30:21;;;;;;;9.03;8.23;;;32.50;60.30;;;;;;5025140;28;20274;-83
2022/07/29 10:33:06;;;;;;;9.30;8.50;;;33.20;59.70;;;;;;5020845;28;20462;-84
2022/07/29 10:35:37;;;;;;;8.63;7.50;;;32.30;60.10;;;;;;5020292;28;20471;-85
2022/07/29 10:38:28;;;;;;;7.27;6.60;;;32.30;60.40;;;;;;5018150;28;20478;-84
2022/07/29 10:41:26;;;;;;;11.73;6.60;;;31.30;61.80;;;;;;5017397;28;20884;-84
2022/07/29 10:43:53;;;;;;;7.83;6.70;;;30.80;63.00;;;;;;5020511;28;20535;-82
2022/07/29 10:46:19;;;;;;;8.00;7.17;;;29.60;66.00;;;;;;5019378;28;20539;-84
2022/07/29 10:49:04;;;;;;;11.43;7.57;;;30.20;67.10;;;;;;5017981;28;20503;-83
2022/07/29 10:52:05;;;;;;;6.40;5.87;;;29.20;68.00;;;;;;5020513;28;20480;-84
2022/07/29 10:54:41;;;;;;;7.20;6.50;;;29.30;68.10;;;;;;5015407;28;20552;-83
2022/07/29 10:57:12;;;;;;;7.67;6.30;;;29.20;67.20;;;;;;5018093;28;20492;-82
2022/07/29 10:59:39;;;;;;;10.13;6.43;;;28.80;66.20;;;;;;5021781;28;20513;-82
2022/07/29 11:02:33;;;;;;;7.57;6.00;;;29.00;68.40;;;;;;5002812;28;22678;-83
2022/07/29 11:05:31;;;;;;;6.10;5.50;;;29.10;66.40;;;;;;5013890;28;21079;-81
2022/07/29 11:08:17;;;;;;;6.60;5.70;;;29.00;66.60;;;;;;4998970;28;20943;-85
2022/07/29 11:10:43;;;;;;;8.70;6.23;;;29.00;64.80;;;;;;5017041;28;21194;-82
2022/07/29 11:13:09;;;;;;;6.77;5.53;;;29.20;67.50;;;;;;5019631;28;20416;-82
2022/07/29 11:15:57;;;;;;;7.10;6.40;;;29.40;68.90;;;;;;5020211;28;20170;-82
2022/07/29 11:18:23;;;;;;;6.10;5.60;;;28.90;65.60;;;;;;5016821;28;20437;-82
2022/07/29 11:20:53;;;;;;;6.83;5.97;;;28.90;66.80;;;;;;5001848;28;20916;-82
2022/07/29 11:23:31;;;;;;;5.70;5.20;;;29.10;65.90;;;;;;5017935;28;21111;-82
2022/07/29 11:26:15;;;;;;;7.37;6.60;;;28.70;66.40;;;;;;5020918;28;21303;-83
2022/07/29 11:29:00;;;;;;;8.60;5.80;;;28.70;65.80;;;;;;5022776;28;20464;-82
2022/07/29 11:31:44;;;;;;;7.10;5.93;;;28.90;64.20;;;;;;5023136;28;20539;-84
2022/07/29 11:34:17;;;;;;;11.83;5.83;;;29.00;63.40;;;;;;5022583;28;20487;-84
2022/07/29 11:37:12;;;;;;;6.50;5.90;;;29.20;64.70;;;;;;5021905;28;20464;-84
2022/07/29 11:39:47;;;;;;;7.47;5.77;;;29.40;65.30;;;;;;5020401;28;20489;-84
2022/07/29 11:42:36;;;;;;;7.83;6.40;;;29.30;64.70;;;;;;5023806;28;20436;-84
2022/07/29 11:45:10;;;;;;;11.00;5.63;;;29.60;63.40;;;;;;4993706;28;21156;-84
2022/07/29 11:47:41;;;;;;;6.77;6.07;;;29.70;63.40;;;;;;5022277;28;20462;-83
2022/07/29 11:50:11;;;;;;;6.93;5.63;;;28.90;61.30;;;;;;5018679;28;20480;-84
2022/07/29 11:52:46;;;;;;;5.60;4.80;;;29.00;62.50;;;;;;5020283;28;20969;-83
2022/07/29 11:55:14;;;;;;;5.67;5.17;;;29.30;63.60;;;;;;5004174;28;20454;-84
2022/07/29 11:57:52;;;;;;;9.70;5.07;;;29.50;62.80;;;;;;5020226;28;20437;-84
2022/07/29 12:00:42;;;;;;;5.37;4.97;;;29.80;62.70;;;;;;5010134;28;20464;-84
2022/07/29 12:03:10;;;;;;;11.60;6.30;;;29.40;61.90;;;;;;5012772;28;20440;-83
2022/07/29 12:05:37;;;;;;;6.10;5.60;;;29.20;61.90;;;;;;5009552;28;20433;-84
2022/07/29 12:08:11;;;;;;;6.03;5.43;;;29.40;62.10;;;;;;5017785;28;20438;-84
2022/07/29 12:10:37;;;;;;;10.03;6.50;;;29.50;61.30;;;;;;5017962;28;20877;-83
2022/07/29 12:13:03;;;;;;;8.10;6.30;;;30.10;61.30;;;;;;5020570;28;20448;-83
2022/07/29 12:15:29;;;;;;;6.80;5.10;;;30.40;60.90;;;;;;5020396;28;20784;-83
2022/07/29 12:17:54;;;;;;;5.87;5.37;;;30.20;60.90;;;;;;5002926;28;20528;-83
2022/07/29 12:20:26;;;;;;;8.30;5.10;;;29.70;60.50;;;;;;5021324;28;20220;-83
2022/07/29 12:22:53;;;;;;;6.60;6.00;;;29.60;61.00;;;;;;5010520;28;20193;-82
2022/07/29 12:25:19;;;;;;;8.40;5.50;;;29.00;62.80;;;;;;5016882;28;21661;-82
2022/07/29 12:27:45;;;;;;;7.70;6.10;;;29.30;61.60;;;;;;5019639;28;20454;-83
2022/07/29 12:30:15;;;;;;;6.37;5.30;;;29.30;62.10;;;;;;5004716;28;20700;-82
2022/07/29 12:32:46;;;;;;;5.30;4.90;;;29.10;61.80;;;;;;5018019;28;20439;-82
2022/07/29 12:35:18;;;;;;;6.60;5.60;;;29.30;62.70;;;;;;5001868;28;20479;-84
2022/07/29 12:37:47;;;;;;;5.83;5.30;;;29.70;62.00;;;;;;5003596;28;20431;-84
2022/07/29 12:40:16;;;;;;;10.00;6.77;;;29.30;61.70;;;;;;5017154;28;20455;-83
2022/07/29 12:43:03;;;;;;;10.23;5.60;;;28.60;62.50;;;;;;5020718;28;20450;-84
2022/07/29 12:45:29;;;;;;;12.23;5.60;;;28.60;65.00;;;;;;5022274;28;20818;-83
2022/07/29 12:47:54;;;;;;;5.80;5.00;;;28.60;64.10;;;;;;5003359;28;20442;-83
2022/07/29 12:50:20;;;;;;;5.60;5.10;;;28.70;64.70;;;;;;5003468;28;20478;-83
2022/07/29 12:52:46;;;;;;;8.00;6.73;;;28.70;64.60;;;;;;5019018;28;20194;-83
2022/07/29 12:55:12;;;;;;;5.50;5.00;;;28.70;63.90;;;;;;5018754;28;20187;-83
2022/07/29 12:57:50;;;;;;;6.20;5.53;;;28.50;64.20;;;;;;5017566;28;23815;-83
2022/07/29 13:00:16;;;;;;;7.70;5.83;;;28.30;64.10;;;;;;4999915;28;20272;-84
2022/07/29 13:02:43;;;;;;;5.53;5.07;;;28.20;64.20;;;;;;5019916;28;20466;-83
2022/07/29 13:05:10;;;;;;;5.97;5.43;;;28.40;65.80;;;;;;5023466;28;20435;-83
2022/07/29 13:07:37;;;;;;;6.47;5.03;;;28.90;65.90;;;;;;5005750;28;20429;-84
2022/07/29 13:10:20;;;;;;;10.10;5.17;;;28.80;64.70;;;;;;5020545;28;20521;-84
2022/07/29 13:13:06;;;;;;;6.53;5.20;;;28.90;64.80;;;;;;5016823;28;20449;-84
2022/07/29 13:15:32;;;;;;;5.50;5.00;;;29.20;63.60;;;;;;5022657;28;20425;-84
2022/07/29 13:17:58;;;;;;;6.60;5.47;;;29.70;64.30;;;;;;5024977;28;20439;-83
2022/07/29 13:20:24;;;;;;;8.40;5.17;;;30.10;63.30;;;;;;5022618;28;21256;-85
2022/07/29 13:22:50;;;;;;;12.13;6.10;;;30.80;62.20;;;;;;5021135;28;20193;-84
2022/07/29 13:25:31;;;;;;;6.90;6.20;;;30.70;60.80;;;;;;5021427;28;20441;-84
2022/07/29 13:27:58;;;;;;;6.23;5.63;;;30.90;60.80;;;;;;5019871;28;20436;-84
2022/07/29 13:30:24;;;;;;;6.93;5.63;;;30.50;58.80;;;;;;5020509;28;20480;-84
2022/07/29 13:32:50;;;;;;;6.73;6.10;;;30.30;59.70;;;;;;5025301;28;20424;-83
2022/07/29 13:35:17;;;;;;;6.63;5.40;;;29.60;62.10;;;;;;5022749;28;20224;-84
2022/07/29 13:37:42;;;;;;;6.80;5.83;;;29.20;61.70;;;;;;5021234;28;20510;-84
2022/07/29 13:40:09;;;;;;;6.40;5.60;;;29.30;63.50;;;;;;5022056;28;20472;-83
2022/07/29 13:42:35;;;;;;;9.43;5.77;;;29.40;64.40;;;;;;5017896;28;20180;-84